Long Pasia Airport


Codes: WBKN/GSA
Name: Long Pasia Airport
City: Long Miau
Country: Malaysia
Elevation: 3175 ft.

Photos at Long Pasia Airport


   Photos courtesy of SpottingLog. You can add your own sightings and photos by signing up for a free trial today.



No photos found.

Weather at Long Pasia Airport


Time (UTC)DescriptionTempratureWindCloud coverageVisibilityPressureHumidity
21-Feb-2024 03:00Light Rain27°C2 mph, NE74%10000m1014hPa62%
21-Feb-2024 06:00Light Rain27°C2 mph, NE74%10000m1013hPa63%
21-Feb-2024 09:00Light Rain25°C2 mph, E81%10000m1012hPa72%
21-Feb-2024 12:00Light Rain20°C2 mph, SE69%10000m1014hPa93%
21-Feb-2024 15:00Scattered Clouds19°C2 mph, SE28%10000m1015hPa97%
21-Feb-2024 18:00Few Clouds18°C2 mph, SE18%10000m1014hPa97%
21-Feb-2024 21:00Few Clouds17°C2 mph, SE14%10000m1015hPa98%
22-Feb-2024 00:00Few Clouds21°C2 mph, E19%10000m1016hPa83%
22-Feb-2024 03:00Clear Sky28°C2 mph, NE9%10000m1014hPa50%
22-Feb-2024 06:00Light Rain25°C2 mph, N36%10000m1012hPa64%
22-Feb-2024 09:00Light Rain23°C2 mph, NE92%10000m1012hPa82%
22-Feb-2024 12:00Light Rain19°C2 mph, E62%10000m1015hPa96%
22-Feb-2024 15:00Scattered Clouds18°C2 mph, SE35%10000m1016hPa98%
22-Feb-2024 18:00Scattered Clouds18°C2 mph, SE44%10000m1014hPa98%
22-Feb-2024 21:00Scattered Clouds18°C2 mph, SE38%10000m1014hPa98%
23-Feb-2024 00:00Scattered Clouds21°C2 mph, E25%10000m1015hPa86%
23-Feb-2024 03:00Few Clouds28°C2 mph, NE16%10000m1014hPa51%
23-Feb-2024 06:00Light Rain29°C4 mph, NE28%10000m1011hPa48%
23-Feb-2024 09:00Light Rain25°C2 mph, NE90%10000m1011hPa69%
23-Feb-2024 12:00Light Rain20°C0 mph, NE85%10000m1014hPa94%
23-Feb-2024 15:00Light Rain19°C2 mph, SE81%10000m1016hPa97%
23-Feb-2024 18:00Broken Clouds18°C2 mph, SE56%10000m1014hPa98%
23-Feb-2024 21:00Scattered Clouds18°C2 mph, SE25%10000m1014hPa98%
24-Feb-2024 00:00Few Clouds21°C2 mph, SE19%10000m1015hPa88%
24-Feb-2024 03:00Light Rain27°C2 mph, NE75%10000m1014hPa57%
24-Feb-2024 06:00Light Rain25°C2 mph, NE79%10000m1012hPa76%
24-Feb-2024 09:00Light Rain22°C2 mph, NE83%10000m1012hPa94%
24-Feb-2024 12:00Moderate Rain19°C2 mph, E73%10000m1015hPa98%
24-Feb-2024 15:00Light Rain18°C2 mph, SE52%10000m1016hPa98%
24-Feb-2024 18:00Broken Clouds18°C2 mph, SE52%10000m1014hPa98%
24-Feb-2024 21:00Overcast Clouds17°C2 mph, SE87%10000m1014hPa98%
25-Feb-2024 00:00Overcast Clouds20°C2 mph, E93%10000m1015hPa92%
25-Feb-2024 03:00Light Rain27°C2 mph, NE82%10000m1014hPa56%
25-Feb-2024 06:00Light Rain25°C2 mph, N87%10000m1011hPa76%
25-Feb-2024 09:00Light Rain23°C2 mph, N92%10000m1011hPa85%
25-Feb-2024 12:00Light Rain19°C2 mph, E95%10000m1014hPa98%
25-Feb-2024 15:00Light Rain18°C2 mph, SE100%10000m1015hPa98%
25-Feb-2024 18:00Overcast Clouds18°C2 mph, SE99%10000m1013hPa98%
25-Feb-2024 21:00Overcast Clouds17°C2 mph, SE100%10000m1013hPa98%
26-Feb-2024 00:00Overcast Clouds20°C2 mph, SE97%10000m1015hPa92%